Date,TemperatureHighF,TemperatureAvgF,TemperatureLowF,DewpointHighF,DewpointAvgF,DewpointLowF,HumidityHigh,HumidityAvg,HumidityLow,PressureMaxIn,PressureMinIn,WindSpeedMaxMPH,WindSpeedAvgMPH,GustSpeedMaxMPH,PrecipitationSumIn
2013-1-1,35,32,24,32,28,18,95,86,74,29.62,29.50,4,1,18,0.00
2013-1-2,28,22,15,20,17,12,93,80,69,29.82,29.61,2,0,11,0.00
2013-1-3,31,20,5,25,16,4,98,85,68,29.80,29.66,4,0,15,0.00
2013-1-4,32,30,28,26,24,22,87,78,72,29.72,29.61,5,2,21,0.00
2013-1-5,34,28,23,28,24,21,98,85,73,29.97,29.71,4,1,17,0.00
2013-1-6,38,32,26,34,30,6,100,93,29,29.75,29.57,3,0,49,0.00
2013-1-7,37,33,21,34,30,-14,100,91,13,29.98,29.71,2,0,11,0.19
2013-1-8,37,24,15,33,23,15,100,96,80,29.97,29.90,2,0,4,0.00
2013-1-9,41,28,18,39,27,18,100,97,75,29.95,29.74,4,1,17,0.00
2013-1-10,42,34,27,35,31,27,100,90,75,30.18,29.94,2,0,17,0.00
2013-1-11,42,36,31,36,34,31,100,95,81,30.05,29.68,2,0,11,0.28
2013-1-12,40,35,33,40,35,33,100,100,100,29.75,29.53,1,0,3,0.00
2013-1-13,45,38,34,45,38,34,100,100,100,29.69,29.53,1,0,4,0.00
2013-1-14,46,41,35,46,38,31,100,90,68,29.93,29.49,3,0,14,0.08
2013-1-15,35,31,25,32,29,25,100,93,80,29.97,29.75,2,0,4,0.00
2013-1-16,34,31,28,34,31,28,100,100,100,29.75,29.46,0,0,6,0.00
2013-1-17,37,33,28,35,32,28,100,98,89,29.72,29.54,2,0,11,0.04
2013-1-18,32,24,18,31,16,11,97,73,55,30.04,29.64,3,1,16,0.01
2013-1-19,48,32,15,32,24,14,96,73,48,29.86,29.40,3,1,14,0.05
2013-1-20,44,35,20,35,24,11,75,63,48,29.70,29.28,6,2,27,0.00
2013-1-21,26,22,15,24,16,5,94,78,64,29.67,29.45,4,1,17,0.00
2013-1-22,15,10,6,6,1,-2,74,65,49,29.81,29.52,5,2,19,0.00
2013-1-23,16,9,5,6,2,-1,82,71,58,29.83,29.70,3,1,14,0.00
2013-1-24,24,13,5,10,6,1,92,72,50,30.08,29.66,2,0,14,0.00
2013-1-25,18,11,7,13,6,1,94,82,63,30.07,29.62,1,0,8,0.00
2013-1-26,25,16,6,20,13,4,99,90,75,29.99,29.65,1,0,4,0.05
2013-1-27,32,20,8,22,16,7,100,85,57,30.14,29.98,1,0,5,0.00
2013-1-28,33,30,25,33,29,20,100,96,74,30.01,29.59,1,0,8,0.22
2013-1-29,37,34,32,37,34,32,100,100,100,29.69,29.52,1,0,4,0.15
2013-1-30,58,45,32,57,45,32,100,100,100,29.52,28.78,3,1,14,1.02
2013-1-31,52,33,22,52,29,17,100,85,62,29.39,28.75,8,3,27,0.41
2013-2-1,24,20,15,22,13,7,96,75,56,29.87,29.36,5,2,20,0.00
2013-2-2,24,18,11,21,13,6,100,82,66,29.87,29.56,3,1,12,0.00
2013-2-3,29,23,18,27,21,13,100,93,74,29.56,29.36,3,0,14,0.04
2013-2-4,28,22,18,24,16,10,100,78,61,29.61,29.47,4,1,15,0.00
2013-2-5,30,26,24,29,26,24,100,99,94,29.52,29.42,1,0,10,0.01
2013-2-6,37,27,18,30,23,17,100,86,56,29.93,29.51,2,0,11,0.04
2013-2-7,40,26,15,29,22,15,100,84,64,29.99,29.76,2,0,14,0.00
2013-2-8,37,32,23,37,31,19,100,95,77,29.76,29.37,4,1,17,0.04
2013-2-9,35,25,18,24,19,15,92,77,59,29.99,29.59,3,0,14,0.01
2013-2-10,42,27,12,28,20,12,100,79,53,30.02,29.70,2,0,14,0.00
2013-2-11,52,39,32,49,35,23,100,87,60,29.73,29.22,7,1,27,0.01
2013-2-12,38,34,25,30,27,24,97,76,68,29.60,29.42,6,2,25,0.00
2013-2-13,41,30,20,34,28,20,100,94,75,29.55,29.28,2,0,5,0.00
2013-2-14,39,33,25,37,32,25,100,97,89,29.57,29.36,1,0,8,0.18
2013-2-15,46,37,30,36,32,28,100,85,59,29.60,29.49,4,0,14,0.00
2013-2-16,35,30,25,30,21,14,98,70,44,29.60,29.46,2,0,10,0.00
2013-2-17,29,21,16,17,10,6,77,63,43,29.75,29.44,4,1,25,0.00
2013-2-18,37,25,14,18,13,8,80,62,42,29.89,29.63,4,1,13,0.00
2013-2-19,39,31,25,38,27,17,100,86,60,29.63,29.24,5,1,18,0.31
2013-2-20,28,23,20,22,14,11,83,70,59,29.69,29.42,5,2,19,0.01
2013-2-21,34,25,20,21,17,14,86,73,56,29.93,29.67,4,1,16,0.00
2013-2-22,32,26,19,28,23,16,94,87,73,29.97,29.74,3,0,11,0.00
2013-2-23,38,33,30,38,33,27,100,98,89,29.73,29.45,1,0,7,0.00
2013-2-24,35,32,27,33,28,22,100,85,65,29.68,29.43,3,1,14,0.00
2013-2-25,46,31,21,31,25,20,100,80,51,29.80,29.68,2,0,8,0.00
2013-2-26,40,34,26,36,30,24,100,89,70,29.79,29.35,4,1,14,0.19
2013-2-27,37,34,32,37,34,32,100,100,100,29.34,29.19,3,0,8,0.76
2013-2-28,46,35,32,38,34,-11,100,98,87,29.31,29.20,3,0,12,0.01
2013-3-1,39,35,30,39,31,-12,100,86,71,29.50,29.30,2,0,49,0.05
2013-3-2,36,31,27,27,24,22,91,77,61,29.49,29.40,2,0,9,0.00
2013-3-3,33,28,24,25,22,18,93,79,69,29.50,29.39,3,1,15,0.00
2013-3-4,32,27,24,24,21,18,84,76,70,29.64,29.49,3,1,16,0.00
2013-3-5,41,30,25,31,25,21,94,81,64,29.67,29.45,3,0,11,0.00
2013-3-6,42,36,28,33,31,27,96,81,69,29.66,29.39,5,2,13,0.00
2013-3-7,46,38,30,32,29,24,86,72,51,29.79,29.65,4,0,12,0.00
2013-3-8,47,35,26,31,26,23,90,71,53,29.95,29.76,4,1,14,0.00
2013-3-9,57,36,21,35,27,21,100,76,35,29.99,29.85,2,0,7,0.00
2013-3-10,65,46,26,40,32,25,99,63,35,29.88,29.73,2,0,12,0.00
2013-3-11,55,49,44,51,37,25,100,65,43,29.75,29.43,4,1,14,0.07
2013-3-12,52,45,37,52,44,34,100,95,84,29.55,29.35,4,1,16,0.69
2013-3-13,46,34,27,37,29,19,100,83,55,29.62,29.45,5,1,21,0.00
2013-3-14,40,30,26,25,20,15,94,66,43,29.68,29.58,4,2,23,0.00
2013-3-15,48,35,22,36,28,17,90,75,62,29.68,29.36,4,1,19,0.00
2013-3-16,37,32,29,32,31,29,100,95,81,29.54,29.32,1,0,5,0.01
2013-3-17,36,30,23,30,26,22,100,88,63,29.85,29.52,2,0,7,0.15
2013-3-18,32,27,21,32,25,20,100,91,67,29.88,29.46,3,0,11,0.00
2013-3-19,46,33,29,40,28,22,100,83,52,29.50,29.29,4,2,21,0.14
2013-3-20,40,32,25,27,23,20,85,68,49,29.50,29.40,5,1,19,0.00
2013-3-21,32,26,18,23,18,13,92,73,49,29.45,29.35,4,1,15,0.00
2013-3-22,36,29,22,27,24,21,99,81,66,29.58,29.39,5,1,17,0.00
2013-3-23,44,33,26,30,25,22,87,72,53,29.62,29.54,4,0,14,0.00
2013-3-24,44,34,24,29,26,22,96,73,48,29.60,29.24,4,1,11,0.00
2013-3-25,37,34,31,34,32,27,100,93,66,29.30,29.15,2,0,8,0.31
2013-3-26,50,37,29,41,34,29,100,88,58,29.57,29.30,2,0,26,0.05
2013-3-27,48,38,33,36,32,30,96,79,56,29.68,29.56,4,1,16,0.00
2013-3-28,45,40,35,35,32,29,96,76,56,29.81,29.63,2,0,11,0.00
2013-3-29,54,41,30,40,34,28,98,77,49,29.82,29.73,3,0,24,0.00
2013-3-30,58,39,24,37,29,24,100,72,31,29.82,29.68,3,0,11,0.00
2013-3-31,47,38,29,45,36,25,100,93,71,29.69,29.32,2,0,16,0.30
2013-4-1,49,41,30,46,32,16,100,76,36,29.57,29.27,4,1,18,0.01
2013-4-2,42,33,26,22,19,14,78,57,40,29.75,29.56,5,1,18,0.00
2013-4-3,44,33,24,22,18,-34,82,56,36,29.99,29.73,4,1,24,0.00
2013-4-4,56,37,19,28,20,15,87,55,28,29.99,29.61,3,0,11,0.00
2013-4-5,61,42,25,35,24,17,87,52,24,29.71,29.45,4,1,16,0.00
2013-4-6,58,40,25,26,21,17,81,50,24,29.93,29.71,3,1,10,0.00
2013-4-7,69,54,42,49,37,24,94,53,41,29.75,29.49,3,1,23,0.00
2013-4-8,77,58,37,56,48,37,100,75,45,29.69,29.51,2,0,8,0.00
2013-4-9,82,68,55,59,55,48,93,66,40,29.67,29.48,3,1,14,0.00
2013-4-10,84,67,57,68,61,54,100,82,59,29.55,29.38,5,1,19,0.57
2013-4-11,59,50,44,59,50,44,100,100,100,29.56,29.42,4,2,11,0.02
2013-4-12,53,49,45,53,49,41,100,99,84,29.44,29.24,4,1,14,0.57
2013-4-13,54,46,40,43,40,38,98,81,61,29.58,29.43,4,1,14,0.00
2013-4-14,61,48,34,42,37,30,89,67,43,29.74,29.57,3,1,13,0.00
2013-4-15,72,56,43,56,48,40,94,75,55,29.82,29.72,4,1,16,0.00
2013-4-16,72,61,53,66,59,51,100,93,80,29.83,29.65,3,1,14,0.11
2013-4-17,70,59,50,60,49,41,100,73,38,29.89,29.74,4,1,9,0.00
2013-4-18,69,60,50,63,56,41,100,86,56,29.82,29.52,3,1,18,0.00
2013-4-19,73,62,47,68,60,42,100,94,81,29.53,29.10,4,2,20,0.67
2013-4-20,52,44,34,43,34,23,91,68,47,29.99,29.40,5,2,17,0.00
2013-4-21,55,39,11,32,27,-8,97,65,37,30.20,29.99,5,1,11,0.28
2013-4-22,61,46,32,38,34,28,97,65,37,30.16,29.98,4,1,12,0.00
2013-4-23,65,50,39,48,40,32,90,69,49,30.01,29.66,3,0,9,0.00
2013-4-24,76,56,42,62,50,39,100,83,54,29.69,29.30,6,1,29,0.34
2013-4-25,62,49,37,44,38,31,94,68,39,29.92,29.69,3,1,14,0.00
2013-4-26,64,50,34,43,36,30,100,65,29,30.07,29.92,4,0,8,0.00
2013-4-27,74,52,32,47,39,30,98,65,35,30.03,29.85,3,0,9,0.00
2013-4-28,68,53,39,52,47,39,100,80,52,29.85,29.70,3,1,15,0.02
2013-4-29,57,55,52,57,53,46,100,93,75,29.71,29.65,2,0,11,0.00
2013-4-30,64,57,48,61,56,48,100,96,83,29.89,29.71,2,0,9,0.00
2013-5-1,76,59,44,49,44,36,100,65,29,30.02,29.89,3,0,9,0.00
2013-5-2,77,59,40,52,45,40,100,66,33,30.04,29.90,3,1,11,0.00
2013-5-3,73,58,43,54,47,41,100,70,44,29.98,29.86,3,1,10,0.00
2013-5-4,75,58,39,54,47,39,100,70,45,29.92,29.76,3,1,10,0.00
2013-5-5,76,59,42,53,43,34,100,64,26,29.83,29.72,3,0,9,0.00
2013-5-6,75,58,40,61,51,11,100,79,56,29.80,29.67,3,0,10,0.00
2013-5-7,80,64,6,66,58,-7,100,82,52,29.72,29.61,3,1,10,0.00
2013-5-8,65,60,54,65,60,54,100,99,91,29.65,29.53,2,0,8,0.33
2013-5-9,69,58,53,69,58,53,100,100,98,29.61,29.52,1,0,8,0.37
2013-5-10,73,58,50,72,58,50,100,100,100,29.63,29.44,0,0,6,0.15
2013-5-15,65,63,61,61,60,60,98,93,86,29.36,29.36,2,0,2,0.00
2013-5-16,81,68,57,60,50,42,99,57,33,29.58,29.37,13,1,13,0.00
2013-5-17,76,60,44,54,49,42,98,67,43,29.81,29.57,5,1,5,0.00
2013-5-18,70,61,52,62,56,49,95,82,66,29.84,29.77,10,1,10,0.00
2013-5-19,65,61,58,65,61,58,99,99,95,29.82,29.72,8,1,8,0.00
2013-5-20,86,71,62,77,69,61,99,92,72,29.72,29.56,8,1,8,0.00
2013-5-21,91,76,60,81,71,60,99,87,60,29.60,29.41,10,2,10,0.00
2013-5-22,91,75,64,75,69,64,99,85,55,29.51,29.36,29,2,29,0.05
2013-5-23,79,67,60,77,66,60,99,97,79,29.47,29.32,10,1,14,0.51
2013-5-24,61,51,44,60,48,38,99,90,71,29.78,29.37,17,3,17,0.09
2013-5-25,65,51,39,45,39,34,99,68,38,29.80,29.69,14,3,16,0.00
2013-5-26,72,55,40,47,41,36,97,64,34,29.85,29.73,21,3,21,0.00
2013-5-27,74,55,35,53,45,35,99,72,40,29.90,29.75,8,1,8,0.00
2013-5-28,65,58,52,65,57,50,99,98,85,29.80,29.66,7,1,7,0.28
2013-5-29,86,70,58,78,67,58,99,91,72,29.71,29.63,15,2,15,0.07
2013-5-30,90,74,58,78,69,58,99,86,59,29.80,29.70,10,1,10,0.00
2013-5-31,91,75,61,80,70,61,99,85,62,29.77,29.59,11,1,11,0.00
2013-6-1,91,76,62,80,71,61,99,86,64,29.64,29.46,11,2,11,0.00
2013-6-2,84,74,67,77,71,66,99,89,59,29.47,29.40,15,2,15,0.00
2013-6-3,79,67,54,68,60,45,99,81,52,29.63,29.45,13,2,13,0.00
2013-6-4,78,61,42,58,50,42,99,70,43,29.77,29.63,12,2,12,0.00
2013-6-5,80,64,44,62,54,44,99,74,45,29.83,29.64,8,1,8,0.02
2013-6-6,67,63,59,61,58,53,99,86,67,29.66,29.47,13,3,13,0.43
2013-6-7,67,64,61,67,63,61,99,99,99,29.47,29.34,8,1,8,0.05
2013-6-8,72,63,55,69,62,54,99,96,76,29.74,29.37,10,1,10,0.05
2013-6-9,82,66,50,70,62,49,99,87,57,29.83,29.71,6,1,6,0.11
2013-6-10,69,67,66,68,66,66,99,99,95,29.73,29.38,7,2,8,0.01
2013-6-11,69,67,66,69,66,65,99,99,96,29.47,29.36,12,2,12,0.46
2013-6-12,82,70,60,75,67,60,99,91,64,29.52,29.41,10,1,10,0.00
2013-6-13,74,66,60,74,66,60,99,99,99,29.42,29.09,15,2,15,1.02
2013-6-14,78,66,57,70,62,56,99,89,65,29.62,29.30,13,2,13,0.00
2013-6-15,80,65,51,71,60,51,99,85,55,29.70,29.60,8,2,8,0.00
2013-6-16,77,66,57,75,65,56,99,97,87,29.65,29.44,13,2,13,0.00
2013-6-17,86,71,60,78,67,60,99,88,54,29.58,29.49,16,2,16,0.01
2013-6-18,130,66,57,76,65,5,99,98,10,29.59,29.45,18,1,18,0.12
2013-6-19,77,63,49,65,57,49,99,83,53,29.78,29.58,8,1,8,0.01
2013-6-20,83,65,48,74,62,48,99,90,66,29.87,29.78,8,1,8,0.00
2013-6-21,84,72,59,78,69,59,99,91,71,29.89,29.80,8,1,8,0.00
2013-6-22,88,74,59,80,70,58,99,90,70,29.84,29.69,9,2,9,0.00
2013-6-23,91,77,64,83,74,64,99,91,71,29.79,29.64,8,1,8,0.00
2013-6-24,92,77,64,82,73,64,99,87,57,29.75,29.60,11,2,11,0.00
2013-6-25,86,73,66,82,72,66,99,97,79,29.65,29.47,18,2,18,0.64
2013-6-26,81,70,65,80,70,64,99,99,96,29.55,29.46,8,1,8,0.08
2013-6-28,72,66,22,68,64,20,99,93,84,29.58,29.51,3,0,6,0.00
2013-6-29,83,65,58,67,62,57,100,91,50,29.73,29.54,9,0,9,0.00
2013-6-30,89,74,59,74,65,58,100,78,43,29.91,29.72,4,0,4,0.06
2013-7-1,74,68,68,72,67,67,96,96,95,29.93,29.90,0,0,0,0.06
2013-7-2,79,79,79,73,73,73,82,81,81,30.06,30.06,0,0,0,0.00
2013-7-3,72,72,71,70,70,70,96,95,94,30.20,30.18,0,0,0,0.00
2013-7-4,91,78,70,76,72,68,99,82,53,30.21,30.12,10,0,10,0.08
2013-7-5,92,79,72,77,72,69,98,80,52,30.17,30.08,8,0,8,0.01
2013-7-6,93,75,67,75,70,66,99,86,49,30.18,30.08,5,0,6,0.00
2013-7-7,91,78,67,75,70,67,99,81,49,30.08,29.97,8,0,8,0.42
2013-7-8,83,69,65,74,67,65,100,94,67,30.10,30.03,8,0,8,0.06
2013-7-9,81,72,66,75,70,65,99,92,78,30.10,29.98,5,0,5,0.09
2013-7-10,85,74,67,75,71,66,99,91,67,29.99,29.82,8,0,9,0.30
2013-7-11,86,72,61,69,65,58,99,80,42,29.98,29.85,7,0,7,0.00
2013-7-12,78,68,60,69,64,59,98,88,69,30.14,29.98,3,0,4,0.01
2013-7-13,81,71,65,75,69,64,98,93,75,30.28,30.11,3,0,3,0.10
2013-7-14,91,77,66,76,70,65,99,82,52,30.34,30.26,6,0,6,0.00
2013-7-15,95,78,65,79,71,64,99,82,45,30.33,30.19,6,0,8,0.48
2013-7-16,96,80,70,78,73,68,99,81,43,30.31,30.18,5,0,5,0.00
2013-7-17,94,80,68,79,73,67,99,81,52,30.27,30.10,5,0,5,0.00
2013-7-18,96,80,70,80,73,68,99,81,48,30.14,30.00,6,0,6,0.00
2013-7-19,94,80,67,77,72,67,99,79,51,30.02,29.81,8,0,8,0.00
2013-7-20,87,76,71,73,70,68,90,82,55,29.88,29.78,8,0,9,0.00
2013-7-21,91,77,66,72,68,61,98,78,40,29.97,29.88,5,0,5,0.00
2013-7-22,86,74,65,77,70,64,99,89,63,29.96,29.77,4,0,6,0.16
2013-7-23,87,74,64,72,68,62,99,84,52,29.77,29.65,8,0,8,0.01
2013-7-24,77,67,55,65,59,53,95,77,50,30.03,29.71,7,0,8,0.00
2013-7-25,80,62,47,60,54,47,99,78,44,30.12,30.02,6,0,6,0.00
2013-7-26,86,66,49,62,56,48,99,75,39,30.15,30.02,5,0,5,0.00
2013-7-27,77,67,55,70,63,54,97,88,69,30.06,29.90,6,0,6,0.02
2013-7-28,84,71,60,68,64,56,97,80,43,30.02,29.88,12,0,12,0.60
2013-7-29,78,65,52,60,56,51,99,77,47,30.19,30.03,8,0,8,0.00
2013-7-30,78,64,50,64,57,50,99,80,49,30.26,30.16,6,0,6,0.00
2013-7-31,85,68,52,66,60,51,99,79,44,30.21,29.99,4,0,4,0.00
2013-8-1,84,71,63,71,65,61,93,82,58,29.99,29.82,7,0,9,0.00
2013-8-2,82,67,55,66,59,54,99,78,43,29.97,29.89,11,0,11,0.00
2013-8-3,82,67,57,70,63,55,98,87,56,29.97,29.89,6,0,6,0.26
2013-8-4,78,63,52,61,56,51,99,79,45,30.08,29.97,8,0,8,0.00
2013-8-5,77,63,49,62,54,48,99,77,39,30.16,30.06,0,0,0,0.00
2013-8-6,82,66,53,66,59,52,97,79,50,30.09,30.05,9,0,10,0.00
2013-8-7,79,69,63,70,65,61,98,88,72,30.08,29.99,4,0,7,0.09
2013-8-8,87,72,61,76,68,60,99,87,63,30.05,29.95,0,0,0,0.00
2013-8-9,85,74,66,76,72,65,98,91,70,29.98,29.84,1,0,1,0.32
2013-8-10,85,70,60,69,62,58,98,80,42,30.11,29.98,8,0,9,0.00
2013-8-11,83,68,58,69,61,56,97,81,50,30.16,30.04,4,0,5,0.00
2013-8-12,66,65,63,64,63,62,96,93,90,29.96,29.93,1,0,1,0.00
2013-8-13,85,70,59,70,62,50,98,78,48,29.93,29.75,8,0,9,0.02
2013-8-14,73,59,48,55,50,46,95,73,46,30.14,29.91,7,0,7,0.00
2013-8-15,78,60,45,57,50,44,99,74,36,30.23,30.12,5,0,8,0.00
2013-8-16,84,63,46,60,52,46,99,73,31,30.24,30.17,6,0,6,0.00
2013-8-17,81,63,48,62,55,48,98,78,41,30.33,30.24,3,0,3,0.00
2013-8-18,76,64,58,64,58,56,96,83,55,30.29,30.18,4,0,5,0.00
2013-8-19,83,66,57,68,62,56,98,87,58,30.20,30.07,5,0,5,0.09
2013-8-20,87,70,59,68,62,56,99,78,38,30.20,30.11,7,0,7,0.00
2013-8-21,89,70,53,69,62,53,99,80,41,30.24,30.07,6,0,6,0.00
2013-8-22,87,72,63,70,66,62,98,83,51,30.09,29.91,10,0,12,0.23
2013-8-23,84,68,57,69,62,55,99,84,43,30.19,29.99,4,0,4,0.00
2013-8-24,84,64,49,63,55,48,99,76,38,30.36,30.19,7,0,7,0.00
2013-8-25,85,66,48,62,56,47,99,75,37,30.44,30.23,9,0,10,0.00
2013-8-26,88,73,60,68,63,59,95,75,46,30.25,29.98,9,0,9,0.01
2013-8-27,90,76,66,72,69,65,97,81,50,29.99,29.86,7,0,7,0.21
2013-8-28,82,72,68,75,71,68,99,95,74,29.92,29.82,0,0,0,0.33
2013-8-29,92,76,67,74,69,63,99,82,41,30.03,29.91,4,0,4,0.00
2013-8-30,89,74,63,73,66,62,99,81,47,30.02,29.82,7,0,7,0.00
2013-8-31,88,75,66,75,69,65,98,84,56,29.85,29.75,7,0,7,0.00
2013-9-1,86,76,68,74,70,68,97,84,60,29.84,29.76,2,0,6,0.00
2013-9-2,89,73,66,74,68,64,99,86,50,29.80,29.70,11,0,11,0.12
2013-9-3,74,66,59,66,59,55,100,82,53,30.00,29.78,10,0,14,0.00
2013-9-4,82,65,52,61,57,52,99,77,41,30.11,30.00,9,0,10,0.00
2013-9-5,79,66,52,61,51,41,95,66,27,30.23,30.01,11,0,11,0.00
2013-9-6,78,56,40,47,42,34,98,68,23,30.33,30.17,5,0,5,0.00
2013-9-7,82,60,41,59,47,34,98,68,22,30.19,29.95,9,0,9,0.02
2013-9-8,79,64,51,66,58,49,99,84,49,30.14,29.91,7,0,7,0.00
2013-9-9,74,58,42,60,50,41,98,78,43,30.24,30.12,8,0,8,0.01
2013-9-10,93,73,58,74,66,57,99,81,53,30.17,30.04,11,0,11,0.00
2013-9-11,93,75,68,76,70,67,99,88,55,30.14,30.00,8,0,8,0.01
2013-9-12,85,70,62,74,68,60,99,92,65,30.01,29.75,23,0,23,0.15
2013-9-13,71,61,53,60,53,46,99,77,45,30.00,29.76,9,0,9,0.02
2013-9-14,70,55,44,47,45,42,96,72,39,30.19,30.00,7,0,8,0.00
2013-9-15,74,54,37,54,47,37,99,80,40,30.28,30.09,7,0,7,0.00
2013-9-16,74,60,51,57,53,43,99,79,47,30.35,30.09,9,0,9,0.08
2013-9-17,71,51,35,45,40,35,99,71,28,30.49,30.34,6,0,7,0.00
2013-9-18,75,53,35,49,42,34,99,72,30,30.38,30.19,8,0,8,0.00
2013-9-19,81,57,39,60,50,38,99,80,45,30.22,30.08,8,0,8,0.00
2013-9-20,82,62,48,63,55,47,99,81,46,30.11,29.91,7,0,7,0.00
2013-9-21,67,63,57,64,60,57,99,90,82,29.93,29.63,11,0,12,0.62
2013-9-22,64,57,50,58,50,42,100,79,53,30.02,29.75,7,0,13,0.01
2013-9-23,68,54,42,48,43,39,96,68,41,30.14,30.02,7,0,8,0.00
2013-9-24,76,51,35,52,43,34,99,80,35,30.18,29.99,5,0,5,0.00
2013-9-25,76,53,38,53,45,37,99,79,30,30.06,29.93,5,0,5,0.00
2013-9-26,79,55,38,55,47,38,99,78,37,30.14,30.01,5,0,5,0.00
2013-9-27,76,59,50,58,52,49,98,79,41,30.26,30.14,5,0,5,0.00
2013-9-28,68,54,43,56,49,43,99,85,55,30.36,30.26,3,0,3,0.00
2013-9-29,76,54,40,54,46,40,99,80,37,30.26,30.08,7,0,7,0.00
2013-9-30,79,58,42,56,50,41,99,78,38,30.12,29.98,6,0,6,0.00
2013-10-1,80,63,54,61,55,52,98,79,42,30.09,29.97,9,0,9,0.00
2013-10-2,83,64,49,64,58,48,99,81,51,30.09,30.00,10,0,11,0.00
2013-10-3,81,65,52,65,59,52,99,84,56,30.16,30.03,5,0,6,0.00
2013-10-4,86,69,60,68,63,59,98,83,48,30.11,30.00,6,0,6,0.00
2013-10-5,84,69,58,68,63,58,99,83,55,30.11,29.99,7,0,7,0.01
2013-10-6,86,72,61,68,65,61,98,80,51,30.02,29.85,11,0,12,0.00
2013-10-7,73,62,47,66,56,43,97,80,55,30.08,29.69,15,1,15,0.76
2013-10-8,71,53,41,49,44,40,99,76,35,30.37,30.08,5,0,6,0.00
2013-10-9,67,50,37,47,41,34,99,74,30,30.43,30.32,5,0,5,0.00
2013-10-10,61,49,40,53,45,39,98,87,51,30.33,30.16,4,0,4,0.22
2013-10-11,50,49,49,49,49,48,98,98,97,30.16,30.12,1,0,1,0.60
2013-10-12,76,58,48,54,48,42,99,74,32,30.26,30.12,5,2,5,0.00
2013-10-13,65,59,53,56,53,50,96,82,67,30.35,30.26,5,0,5,0.00
2013-10-14,62,57,53,55,52,49,95,85,75,30.37,30.28,5,0,6,0.00
2013-10-15,73,61,50,57,53,48,99,78,51,30.30,30.08,9,0,10,0.00
2013-10-16,65,58,53,57,53,47,94,82,68,30.08,29.89,6,0,6,0.00
2013-10-17,70,61,53,61,55,49,95,81,55,29.94,29.63,14,0,15,0.11
2013-10-18,63,53,41,48,42,39,94,70,41,30.03,29.83,13,1,13,0.00
2013-10-19,57,45,33,51,43,32,99,92,70,30.03,29.76,10,0,10,0.12
2013-10-20,60,47,38,42,38,35,94,74,40,30.10,29.90,12,0,12,0.00
2013-10-21,67,47,32,45,37,31,99,73,35,30.17,29.94,10,0,11,0.00
2013-10-22,57,47,39,46,36,30,82,67,36,29.92,29.83,15,3,15,0.00
2013-10-23,46,41,37,40,35,32,88,80,65,29.91,29.74,6,0,6,0.01
2013-10-24,48,39,32,35,32,28,92,76,48,30.13,29.90,18,1,18,0.00
2013-10-25,51,41,32,37,32,28,84,73,47,30.29,30.13,12,0,12,0.00
2013-10-26,55,41,29,32,28,25,92,64,33,30.28,29.92,15,1,15,0.00
2013-10-27,51,42,31,36,33,28,91,69,51,30.17,29.94,11,1,12,0.00
2013-10-28,62,40,25,38,32,24,97,76,35,30.37,30.16,7,0,7,0.00
2013-10-29,57,42,30,39,35,29,98,79,47,30.47,30.34,6,0,7,0.00
2013-10-30,67,45,32,45,38,31,98,79,41,30.35,30.16,3,0,3,0.00
2013-10-31,66,58,50,59,54,44,96,88,77,30.19,29.64,12,1,17,0.16
2013-11-1,67,59,43,60,51,41,95,78,41,29.72,29.38,19,2,19,0.38
2013-11-2,56,45,36,47,41,36,99,86,56,29.90,29.68,12,0,12,0.03
2013-11-3,51,40,25,44,30,21,95,71,38,30.55,29.90,7,0,11,0.02
2013-11-4,44,32,20,25,21,14,95,68,31,30.70,30.55,8,0,8,0.00
2013-11-5,55,43,33,39,31,20,93,64,45,30.66,30.47,10,0,10,0.00
2013-11-6,65,51,36,50,45,34,97,80,58,30.47,29.96,11,1,11,0.00
2013-11-7,60,49,36,52,42,25,97,77,57,30.08,29.86,18,1,18,0.37
2013-11-8,46,38,29,33,29,25,88,72,53,30.32,30.06,14,1,15,0.00
2013-11-9,50,39,25,33,28,23,94,69,45,30.34,29.95,12,0,12,0.00
2013-11-10,50,46,39,38,32,27,73,57,44,30.22,29.93,20,2,21,0.00
2013-11-11,50,42,31,34,30,21,91,64,34,30.28,30.03,14,0,14,0.00
2013-11-12,44,32,28,37,23,13,94,72,40,30.43,30.06,14,0,15,0.04
2013-11-13,39,30,24,25,21,17,81,68,49,30.52,30.35,9,0,11,0.00
2013-11-14,52,34,24,24,20,10,89,59,19,30.35,30.22,11,0,11,0.00
2013-11-15,58,35,22,33,25,18,92,70,23,30.30,30.19,7,0,7,0.00
2013-11-16,61,46,31,46,38,30,96,75,49,30.34,30.20,8,0,9,0.00
2013-11-17,58,53,49,56,51,45,97,92,85,30.21,29.56,14,1,20,0.34
2013-11-18,59,50,40,57,37,27,96,64,38,29.98,29.56,21,2,21,0.17
2013-11-19,42,35,23,32,25,21,91,66,49,30.47,29.98,16,0,16,0.00
2013-11-20,44,28,20,27,20,12,96,76,28,30.63,30.47,6,0,6,0.00
2013-11-21,45,36,25,36,28,18,82,73,61,30.62,30.38,9,0,9,0.00
2013-11-22,48,42,39,48,40,32,99,93,71,30.38,30.05,8,0,9,0.05
2013-11-23,41,32,21,33,23,9,91,70,45,30.24,30.04,16,1,16,0.00
2013-11-24,29,21,16,16,7,2,82,56,35,30.52,30.23,12,1,13,0.00
2013-11-25,35,24,13,14,11,8,86,60,36,30.56,30.30,10,0,12,0.00
2013-11-26,32,30,29,31,28,12,97,92,45,30.33,29.92,8,0,8,0.00
2013-11-27,35,28,23,33,24,17,98,83,74,30.02,29.63,14,2,14,0.04
2013-11-28,29,25,23,22,20,17,90,82,69,30.51,30.02,14,0,14,0.00
2013-11-29,32,24,15,24,20,14,96,87,66,30.80,30.50,5,0,5,0.00
2013-11-30,32,22,11,22,17,-7,95,81,61,30.80,30.40,6,0,6,0.00
2013-12-1,30,24,15,27,21,14,96,88,81,30.40,30.09,3,0,3,0.00
2013-12-2,37,31,26,32,29,24,97,91,79,30.09,29.92,3,0,3,0.01
2013-12-3,43,35,28,38,33,27,98,92,78,30.05,29.94,2,0,2,0.04
2013-12-4,42,34,28,38,32,28,98,95,84,30.16,30.05,3,0,3,0.00
2013-12-5,57,50,39,53,48,37,99,94,83,30.09,29.93,8,0,9,0.42
2013-12-6,49,38,30,49,37,30,99,94,79,30.26,29.96,7,0,7,0.37
2013-12-7,34,28,18,30,25,15,98,90,72,30.64,30.24,6,0,6,0.00
2013-12-8,26,21,14,25,18,12,96,90,77,30.65,30.35,3,0,3,0.00
2013-12-9,36,32,26,34,30,25,97,91,76,30.35,30.04,13,1,13,0.04
2013-12-10,32,28,22,27,20,10,90,71,51,30.22,30.00,20,1,20,0.00
2013-12-11,30,23,19,20,15,11,88,70,46,30.39,30.22,12,1,13,0.00
2013-12-12,22,18,15,18,8,2,87,65,47,30.47,30.23,18,1,18,0.00
2013-12-13,32,24,18,23,14,4,88,65,49,30.37,30.20,18,1,18,0.00
2013-12-14,29,26,23,26,23,19,96,89,82,30.40,29.84,4,0,4,0.00
2013-12-15,33,28,23,31,25,15,97,88,69,29.98,29.67,0,0,0,0.00
2013-12-16,26,17,9,16,9,5,88,73,51,30.25,29.98,0,0,0,0.00
2013-12-17,25,18,12,22,15,10,94,89,76,30.22,30.02,0,0,0,0.00
2013-12-18,33,25,12,25,19,11,96,81,62,30.24,30.06,0,0,0,0.00
2013-12-19,44,23,8,33,19,6,96,86,62,30.19,30.07,3,0,3,0.07
2013-12-20,38,32,26,33,30,25,97,93,82,30.14,29.98,1,0,1,0.20
2013-12-21,40,36,33,38,35,32,99,96,92,30.00,29.85,5,0,5,0.59
2013-12-22,62,53,35,57,51,35,99,92,77,29.96,29.68,15,1,18,0.04
2013-12-23,50,43,31,49,38,22,99,85,67,30.28,29.93,16,0,16,0.03
2013-12-24,33,26,17,25,18,10,84,72,57,30.50,30.21,13,0,13,0.00
2013-12-25,26,20,9,15,11,7,92,69,54,30.61,30.36,8,0,9,0.00
2013-12-26,33,26,22,29,22,13,91,82,61,30.38,30.22,11,0,11,0.00
2013-12-27,37,27,18,28,22,16,95,82,63,30.41,30.32,7,0,7,0.01
2013-12-28,52,34,20,32,27,19,96,78,43,30.32,30.11,15,0,15,0.01
2013-12-29,40,34,30,39,33,28,99,96,90,30.11,29.68,9,0,10,0.96
2013-12-30,40,30,19,38,22,10,94,74,59,30.24,29.82,12,0,12,0.02
2013-12-31,28,22,18,25,15,10,90,75,60,30.35,30.11,16,1,17,0.00
2014-1-1,27,23,17,22,18,13,95,84,75,30.44,30.21,8,0,9,0.00
2014-1-2,25,21,12,22,19,10,95,91,86,30.21,29.80,8,1,8,0.00